createdAt,value
2022-11-12T00:02:13.897Z,102710.03
2022-11-12T00:04:58.612Z,102712.75
2022-11-12T00:07:43.625Z,102711.97
2022-11-12T00:10:28.427Z,102707.59
2022-11-12T00:13:13.468Z,102702.56
2022-11-12T00:15:58.253Z,102702.44
2022-11-12T00:18:43.052Z,102703.97
2022-11-12T00:21:27.781Z,102698.03
2022-11-12T00:24:12.647Z,102698.03
2022-11-12T00:26:57.523Z,102704.41
2022-11-12T00:29:42.390Z,102705.16
2022-11-12T00:32:27.307Z,102700.75
2022-11-12T00:35:13.991Z,102706.38
2022-11-12T00:37:59.121Z,102701.38
2022-11-12T00:40:43.925Z,102704.25
2022-11-12T00:43:28.728Z,102703.50
2022-11-12T00:46:13.589Z,102705.63
2022-11-12T00:48:58.381Z,102712.13
2022-11-12T00:51:43.305Z,102710.63
2022-11-12T00:54:28.115Z,102714.84
2022-11-12T00:57:12.937Z,102710.31
2022-11-12T00:59:57.769Z,102708.94
2022-11-12T01:02:46.411Z,102706.69
2022-11-12T01:05:34.762Z,102721.69
2022-11-12T01:08:19.896Z,102713.03
2022-11-12T01:11:05.565Z,102708.03
2022-11-12T01:13:58.407Z,102702.28
2022-11-12T01:16:43.404Z,102704.41
2022-11-12T01:19:28.162Z,102698.81
2022-11-12T01:22:13.055Z,102701.09
2022-11-12T01:24:57.859Z,102706.22
2022-11-12T01:27:42.731Z,102704.88
2022-11-12T01:30:27.554Z,102706.38
2022-11-12T01:33:12.559Z,102707.91
2022-11-12T01:35:58.565Z,102704.88
2022-11-12T01:38:43.447Z,102705.03
2022-11-12T01:41:29.046Z,102700.63
2022-11-12T01:44:15.209Z,102705.16
2022-11-12T01:47:02.164Z,102719.41
2022-11-12T01:49:54.144Z,102718.63
2022-11-12T01:52:42.912Z,102717.72
2022-11-12T01:55:31.812Z,102717.59
2022-11-12T01:58:17.784Z,102722.59
2022-11-12T02:01:02.790Z,102730.63
2022-11-12T02:03:47.956Z,102724.13
2022-11-12T02:06:32.804Z,102713.94
2022-11-12T02:09:17.610Z,102723.97
2022-11-12T02:12:02.480Z,102718.81
2022-11-12T02:14:47.448Z,102723.06
2022-11-12T02:17:32.692Z,102723.06
2022-11-12T02:20:17.441Z,102730.16
2022-11-12T02:23:02.341Z,102727.28
2022-11-12T02:25:47.345Z,102730.00
2022-11-12T02:28:32.068Z,102724.25
2022-11-12T02:31:16.894Z,102728.50
2022-11-12T02:34:01.659Z,102726.97
2022-11-12T02:36:46.575Z,102728.34
2022-11-12T02:39:31.605Z,102734.09
2022-11-12T02:42:16.387Z,102741.22
2022-11-12T02:45:01.320Z,102743.34
2022-11-12T02:47:46.109Z,102740.47
2022-11-12T02:50:31.080Z,102749.66
2022-11-12T02:53:15.932Z,102741.66
2022-11-12T02:56:00.948Z,102741.66
2022-11-12T02:58:45.830Z,102746.66
2022-11-12T03:01:30.786Z,102739.38
2022-11-12T03:04:15.797Z,102742.84
2022-11-12T03:07:00.605Z,102738.47
2022-11-12T03:09:45.587Z,102753.59
2022-11-12T03:12:30.779Z,102753.59
2022-11-12T03:15:17.589Z,102760.72
2022-11-12T03:18:02.339Z,102756.16
2022-11-12T03:20:47.283Z,102756.16
2022-11-12T03:23:32.282Z,102759.03
2022-11-12T03:26:17.046Z,102761.78
2022-11-12T03:29:02.163Z,102769.03
2022-11-12T03:31:46.832Z,102768.28
2022-11-12T03:34:31.670Z,102763.88
2022-11-12T03:37:16.510Z,102769.66
2022-11-12T03:40:01.342Z,102770.41
2022-11-12T03:42:46.720Z,102777.09
2022-11-12T03:45:31.557Z,102766.31
2022-11-12T03:48:16.434Z,102763.59
2022-11-12T03:51:01.220Z,102762.22
2022-11-12T03:53:45.955Z,102760.09
2022-11-12T03:56:30.656Z,102762.38
2022-11-12T03:59:15.464Z,102753.91
2022-11-12T04:02:00.236Z,102759.66
2022-11-12T04:05:03.890Z,102759.81
2022-11-12T04:08:08.224Z,102762.88
2022-11-12T04:10:54.096Z,102771.53
2022-11-12T04:13:42.845Z,102755.75
2022-11-12T04:16:46.413Z,102764.41
2022-11-12T04:19:50.392Z,102751.38
2022-11-12T04:22:35.398Z,102757.13
2022-11-12T04:25:38.995Z,102765.78
2022-11-12T04:28:24.481Z,102756.06
2022-11-12T04:31:09.463Z,102759.09
2022-11-12T04:33:54.413Z,102766.66
2022-11-12T04:36:39.157Z,102774.22
2022-11-12T04:39:23.934Z,102780.47
2022-11-12T04:42:27.466Z,102771.22
2022-11-12T04:45:12.443Z,102769.13
2022-11-12T04:47:57.242Z,102770.47
2022-11-12T04:50:42.355Z,102760.59
2022-11-12T04:53:27.666Z,102773.66
2022-11-12T04:56:12.953Z,102778.19
2022-11-12T04:58:57.777Z,102781.69
2022-11-12T05:01:42.927Z,102785.47
2022-11-12T05:04:28.852Z,102782.59
2022-11-12T05:07:14.158Z,102775.47
2022-11-12T05:09:58.838Z,102781.69
2022-11-12T05:12:43.661Z,102787.75
2022-11-12T05:15:28.570Z,102778.34
2022-11-12T05:18:13.499Z,102777.75
2022-11-12T05:20:58.247Z,102783.19
2022-11-12T05:23:43.074Z,102784.69
2022-11-12T05:26:28.040Z,102792.75
2022-11-12T05:29:12.947Z,102802.75
2022-11-12T05:31:57.768Z,102791.25
2022-11-12T05:34:42.553Z,102798.19
2022-11-12T05:37:27.447Z,102793.81
2022-11-12T05:40:12.333Z,102792.44
2022-11-12T05:42:57.260Z,102797.44
2022-11-12T05:45:42.619Z,102792.44
2022-11-12T05:48:27.742Z,102796.84
2022-11-12T05:51:14.143Z,102804.09
2022-11-12T05:53:59.297Z,102800.47
2022-11-12T05:56:44.208Z,102805.47
2022-11-12T05:59:28.959Z,102800.31
2022-11-12T06:02:13.968Z,102802.44
2022-11-12T06:04:58.829Z,102812.75
2022-11-12T06:07:43.627Z,102818.81
2022-11-12T06:10:28.394Z,102817.91
2022-11-12T06:13:13.200Z,102813.38
2022-11-12T06:15:57.960Z,102827.59
2022-11-12T06:18:42.880Z,102809.13
2022-11-12T06:21:27.958Z,102815.63
2022-11-12T06:24:14.097Z,102820.63
2022-11-12T06:26:58.957Z,102824.41
2022-11-12T06:29:43.862Z,102818.81
2022-11-12T06:32:28.689Z,102813.66
2022-11-12T06:35:13.757Z,102821.53
2022-11-12T06:37:58.677Z,102822.91
2022-11-12T06:40:43.623Z,102830.16
2022-11-12T06:43:28.878Z,102833.81
2022-11-12T06:46:14.662Z,102847.44
2022-11-12T06:48:59.911Z,102840.34
2022-11-12T06:51:44.821Z,102848.81
2022-11-12T06:54:29.793Z,102838.81
2022-11-12T06:57:14.550Z,102849.13
2022-11-12T06:59:59.331Z,102850.34
2022-11-12T07:02:44.673Z,102851.41
2022-11-12T07:05:31.178Z,102850.81
2022-11-12T07:08:16.068Z,102847.91
2022-11-12T07:11:00.749Z,102850.97
2022-11-12T07:13:46.055Z,102852.94
2022-11-12T07:16:30.979Z,102851.41
2022-11-12T07:19:15.801Z,102868.09
2022-11-12T07:22:00.578Z,102863.38
2022-11-12T07:24:45.523Z,102874.91
2022-11-12T07:27:30.944Z,102866.38
2022-11-12T07:30:15.912Z,102876.41
2022-11-12T07:33:00.749Z,102873.53
2022-11-12T07:35:45.808Z,102879.13
2022-11-12T07:38:31.176Z,102887.16
2022-11-12T07:41:17.152Z,102879.88
2022-11-12T07:44:02.185Z,102878.38
2022-11-12T07:46:47.058Z,102869.72
2022-11-12T07:49:31.891Z,102880.66
2022-11-12T07:52:16.735Z,102882.16
2022-11-12T07:55:01.611Z,102889.13
2022-11-12T07:57:46.539Z,102873.03
2022-11-12T08:00:31.271Z,102876.84
2022-11-12T08:03:16.012Z,102889.41
2022-11-12T08:06:01.232Z,102892.16
2022-11-12T08:08:46.368Z,102880.78
2022-11-12T08:11:31.837Z,102886.41
2022-11-12T08:14:16.791Z,102895.47
2022-11-12T08:17:01.565Z,102892.00
2022-11-12T08:19:46.396Z,102889.69
2022-11-12T08:22:31.411Z,102883.81
2022-11-12T08:25:16.478Z,102884.09
2022-11-12T08:28:01.615Z,102885.44
2022-11-12T08:30:46.604Z,102882.25
2022-11-12T08:33:31.436Z,102880.41
2022-11-12T08:36:16.505Z,102885.59
2022-11-12T08:39:01.605Z,102888.97
2022-11-12T08:41:46.531Z,102885.03
2022-11-12T08:44:31.368Z,102888.84
2022-11-12T08:47:16.366Z,102881.88
2022-11-12T08:50:01.121Z,102876.56
2022-11-12T08:52:45.983Z,102878.09
2022-11-12T08:55:30.906Z,102887.63
2022-11-12T08:58:15.828Z,102882.66
2022-11-12T09:01:04.367Z,102881.28
2022-11-12T09:03:49.167Z,102879.91
2022-11-12T09:06:34.142Z,102883.13
2022-11-12T09:09:19.357Z,102881.78
2022-11-12T09:12:12.367Z,102886.16
2022-11-12T09:15:30.642Z,102893.44
2022-11-12T09:18:05.656Z,102884.81
2022-11-12T09:20:50.508Z,102892.06
2022-11-12T09:23:35.527Z,102885.56
2022-11-12T09:26:20.462Z,102894.34
2022-11-12T09:29:05.307Z,102898.59
2022-11-12T09:31:50.124Z,102893.56
2022-11-12T09:34:35.061Z,102896.66
2022-11-12T09:37:19.827Z,102898.78
2022-11-12T09:40:05.512Z,102888.16
2022-11-12T09:42:52.369Z,102896.81
2022-11-12T09:45:37.452Z,102895.47
2022-11-12T09:48:27.274Z,102894.09
2022-11-12T09:51:22.015Z,102896.66
2022-11-12T09:54:18.732Z,102890.88
2022-11-12T09:57:03.542Z,102882.25
2022-11-12T09:59:48.697Z,102887.25
2022-11-12T10:02:39.025Z,102888.00
2022-11-12T10:05:28.990Z,102881.06
2022-11-12T10:08:25.352Z,102883.78
2022-11-12T10:11:18.010Z,102894.84
2022-11-12T10:14:13.291Z,102889.25
2022-11-12T10:17:17.161Z,102885.63
2022-11-12T10:20:08.564Z,102875.63
2022-11-12T10:22:56.601Z,102880.00
2022-11-12T10:25:42.371Z,102896.69
2022-11-12T10:28:38.232Z,102888.06
2022-11-12T10:31:24.110Z,102877.63
2022-11-12T10:34:16.099Z,102889.13
2022-11-12T10:37:01.993Z,102895.19
2022-11-12T10:39:47.773Z,102890.38
2022-11-12T10:42:32.802Z,102876.41
2022-11-12T10:45:21.968Z,102880.66
2022-11-12T10:48:24.491Z,102889.59
2022-11-12T10:51:20.545Z,102871.72
2022-11-12T10:54:19.087Z,102871.72
2022-11-12T10:57:26.004Z,102883.97
2022-11-12T11:00:13.985Z,102879.75
2022-11-12T11:02:59.060Z,102879.75
2022-11-12T11:05:52.185Z,102885.50
2022-11-12T11:08:38.796Z,102879.75
2022-11-12T11:11:24.873Z,102878.38
2022-11-12T11:14:22.244Z,102882.00
2022-11-12T11:17:08.416Z,102881.09
2022-11-12T11:19:53.705Z,102875.97
2022-11-12T11:22:40.255Z,102878.06
2022-11-12T11:25:28.500Z,102880.34
2022-11-12T11:28:23.211Z,102870.50
2022-11-12T11:31:15.571Z,102890.06
2022-11-12T11:34:15.904Z,102872.78
2022-11-12T11:37:04.092Z,102859.88
2022-11-12T11:39:52.021Z,102859.28
2022-11-12T11:42:44.363Z,102864.28
2022-11-12T11:45:48.301Z,102848.53
2022-11-12T11:48:44.016Z,102855.19
2022-11-12T11:51:35.077Z,102845.81
2022-11-12T11:54:38.804Z,102846.88
2022-11-12T11:57:27.929Z,102850.50
2022-11-12T12:00:19.415Z,102857.00
2022-11-12T12:03:24.203Z,102853.53
2022-11-12T12:06:17.421Z,102849.16
2022-11-12T12:09:20.928Z,102853.53
2022-11-12T12:12:28.457Z,102861.56
2022-11-12T12:15:19.537Z,102850.06
2022-11-12T12:18:07.568Z,102854.44
2022-11-12T12:21:02.750Z,102855.97
2022-11-12T12:23:48.805Z,102840.03
2022-11-12T12:26:46.847Z,102832.03
2022-11-12T12:29:39.617Z,102838.69
2022-11-12T12:32:35.115Z,102830.06
2022-11-12T12:35:21.150Z,102835.03
2022-11-12T12:38:14.100Z,102826.41
2022-11-12T12:41:09.561Z,102824.28
2022-11-12T12:43:55.584Z,102814.28
2022-11-12T12:46:44.916Z,102817.31
2022-11-12T12:49:30.670Z,102808.69
2022-11-12T12:52:15.464Z,102820.19
2022-11-12T12:55:00.242Z,102809.44
2022-11-12T12:57:45.084Z,102802.91
2022-11-12T13:00:39.764Z,102805.78
2022-11-12T13:03:43.679Z,102793.53
2022-11-12T13:06:35.469Z,102789.09
2022-11-12T13:09:23.683Z,102791.25
2022-11-12T13:12:08.924Z,102786.22
2022-11-12T13:15:07.856Z,102792.00
2022-11-12T13:17:52.942Z,102789.72
2022-11-12T13:20:38.452Z,102808.50
2022-11-12T13:24:02.165Z,102792.63
2022-11-12T13:26:54.407Z,102806.22
2022-11-12T13:29:40.158Z,102802.59
2022-11-12T13:32:29.402Z,102799.72
2022-11-12T13:35:15.108Z,102801.09
2022-11-12T13:38:09.331Z,102810.50
2022-11-12T13:41:12.997Z,102808.38
2022-11-12T13:43:58.026Z,102808.22
2022-11-12T13:46:42.886Z,102812.63
2022-11-12T13:49:27.649Z,102802.44
2022-11-12T13:52:13.594Z,102811.09
2022-11-12T13:55:02.309Z,102809.75
2022-11-12T13:57:54.002Z,102809.75
2022-11-12T14:00:38.809Z,102813.38
2022-11-12T14:03:24.339Z,102811.09
2022-11-12T14:06:16.682Z,102795.50
2022-11-12T14:09:20.733Z,102807.00
2022-11-12T14:12:24.467Z,102793.22
2022-11-12T14:15:09.455Z,102795.50
2022-11-12T14:18:01.255Z,102798.22
2022-11-12T14:20:46.312Z,102791.72
2022-11-12T14:23:31.054Z,102795.94
2022-11-12T14:26:33.769Z,102785.94
2022-11-12T14:29:18.728Z,102802.00
2022-11-12T14:32:03.729Z,102798.97
2022-11-12T14:34:48.498Z,102786.06
2022-11-12T14:37:41.641Z,102782.44
2022-11-12T14:40:28.785Z,102775.19
2022-11-12T14:43:19.152Z,102783.06
2022-11-12T14:46:06.481Z,102781.53
2022-11-12T14:48:52.536Z,102779.41
2022-11-12T14:51:39.938Z,102779.41
2022-11-12T14:54:29.772Z,102772.16
2022-11-12T14:57:18.336Z,102768.53
2022-11-12T15:00:22.178Z,102773.38
2022-11-12T15:03:06.990Z,102773.38
2022-11-12T15:05:59.023Z,102779.88
2022-11-12T15:08:44.359Z,102764.72
2022-11-12T15:11:29.149Z,102763.19
2022-11-12T15:14:21.670Z,102771.84
2022-11-12T15:17:06.608Z,102781.84
2022-11-12T15:19:51.457Z,102779.72
2022-11-12T15:22:36.271Z,102777.44
2022-11-12T15:25:22.068Z,102775.94
2022-11-12T15:28:33.277Z,102771.53
2022-11-12T15:31:19.169Z,102766.41
2022-11-12T15:34:19.415Z,102770.03
2022-11-12T15:37:19.961Z,102776.53
2022-11-12T15:40:07.802Z,102775.78
2022-11-12T15:42:52.772Z,102775.03
2022-11-12T15:45:37.507Z,102773.50
2022-11-12T15:48:22.291Z,102780.63
2022-11-12T15:51:08.925Z,102784.25
2022-11-12T15:53:53.972Z,102792.91
2022-11-12T15:56:38.761Z,102786.41
2022-11-12T15:59:23.521Z,102793.50
2022-11-12T16:02:14.539Z,102791.25
2022-11-12T16:04:59.444Z,102802.75
2022-11-12T16:07:44.287Z,102799.88
2022-11-12T16:10:29.173Z,102791.25
2022-11-12T16:13:27.295Z,102791.25
2022-11-12T16:16:12.518Z,102788.53
2022-11-12T16:18:57.299Z,102792.16
2022-11-12T16:21:42.150Z,102785.00
2022-11-12T16:24:27.394Z,102785.00
2022-11-12T16:27:13.234Z,102790.03
2022-11-12T16:29:58.319Z,102787.16
2022-11-12T16:32:43.178Z,102790.50
2022-11-12T16:35:28.044Z,102789.66
2022-11-12T16:38:14.013Z,102787.56
2022-11-12T16:40:59.158Z,102782.88
2022-11-12T16:43:44.020Z,102786.69
2022-11-12T16:46:34.587Z,102790.47
2022-11-12T16:49:21.457Z,102787.16
2022-11-12T16:52:08.366Z,102777.00
2022-11-12T16:54:53.503Z,102795.78
2022-11-12T16:57:38.398Z,102797.28
2022-11-12T17:00:23.264Z,102791.53
2022-11-12T17:03:11.460Z,102785.78
2022-11-12T17:05:56.463Z,102777.00
2022-11-12T17:08:41.282Z,102784.25
2022-11-12T17:11:26.135Z,102784.25
2022-11-12T17:14:11.074Z,102774.25
2022-11-12T17:16:56.122Z,102770.63
2022-11-12T17:19:41.129Z,102778.66
2022-11-12T17:22:26.100Z,102779.72
2022-11-12T17:25:11.293Z,102781.06
2022-11-12T17:27:56.096Z,102774.56
2022-11-12T17:30:40.937Z,102774.56
2022-11-12T17:33:25.890Z,102774.56
2022-11-12T17:36:11.992Z,102776.09
2022-11-12T17:38:57.132Z,102777.59
2022-11-12T17:41:42.133Z,102782.34
2022-11-12T17:44:27.118Z,102785.38
2022-11-12T17:47:11.839Z,102781.91
2022-11-12T17:49:56.708Z,102787.47
2022-11-12T17:52:41.458Z,102773.94
2022-11-12T17:55:26.593Z,102774.16
2022-11-12T17:58:11.553Z,102781.78
2022-11-12T18:00:56.785Z,102776.06
2022-11-12T18:03:42.614Z,102782.13
2022-11-12T18:06:33.911Z,102780.91
2022-11-12T18:09:18.578Z,102791.25
2022-11-12T18:12:03.441Z,102778.50
2022-11-12T18:14:48.424Z,102775.78
2022-11-12T18:17:33.436Z,102781.53
2022-11-12T18:20:19.681Z,102777.28
2022-11-12T18:23:04.607Z,102780.31
2022-11-12T18:25:49.866Z,102776.09
2022-11-12T18:28:34.672Z,102777.59
2022-11-12T18:31:19.452Z,102766.06
2022-11-12T18:34:04.274Z,102772.59
2022-11-12T18:36:49.043Z,102779.13
2022-11-12T18:39:33.719Z,102773.38
2022-11-12T18:42:18.599Z,102766.06
2022-11-12T18:45:03.428Z,102767.59
2022-11-12T18:47:48.243Z,102774.13
2022-11-12T18:50:33.263Z,102776.38
2022-11-12T18:53:17.964Z,102780.63
2022-11-12T18:56:04.251Z,102768.34
2022-11-12T18:58:49.257Z,102776.38
2022-11-12T19:01:34.125Z,102779.25
2022-11-12T19:04:18.946Z,102774.13
2022-11-12T19:07:03.887Z,102777.16
2022-11-12T19:09:48.805Z,102789.44
2022-11-12T19:12:33.540Z,102777.16
2022-11-12T19:15:22.737Z,102780.78
2022-11-12T19:18:10.769Z,102772.47
2022-11-12T19:21:02.636Z,102771.06
2022-11-12T19:23:52.724Z,102768.19
2022-11-12T19:26:38.707Z,102781.53
2022-11-12T19:29:23.604Z,102778.50
2022-11-12T19:32:08.332Z,102780.03
2022-11-12T19:34:53.312Z,102777.00
2022-11-12T19:37:38.088Z,102778.38
2022-11-12T19:40:23.076Z,102788.50
2022-11-12T19:43:07.855Z,102773.38
2022-11-12T19:45:52.719Z,102777.00
2022-11-12T19:48:37.646Z,102775.63
2022-11-12T19:51:24.172Z,102773.50
2022-11-12T19:54:09.090Z,102780.03
2022-11-12T19:56:53.728Z,102772.13
2022-11-12T19:59:40.059Z,102780.78
2022-11-12T20:02:25.075Z,102773.50
2022-11-12T20:05:10.520Z,102780.03
2022-11-12T20:07:55.755Z,102781.38
2022-11-12T20:10:40.443Z,102788.50
2022-11-12T20:13:25.925Z,102787.75
2022-11-12T20:16:14.917Z,102779.88
2022-11-12T20:19:01.392Z,102784.25
2022-11-12T20:21:46.643Z,102780.03
2022-11-12T20:24:31.509Z,102780.03
2022-11-12T20:27:17.638Z,102776.56
2022-11-12T20:30:03.115Z,102777.75
2022-11-12T20:32:48.196Z,102780.63
2022-11-12T20:35:36.319Z,102777.16
2022-11-12T20:38:21.385Z,102776.41
2022-11-12T20:41:06.401Z,102784.25
2022-11-12T20:43:52.295Z,102778.50
2022-11-12T20:46:37.018Z,102778.66
2022-11-12T20:49:21.938Z,102781.53
2022-11-12T20:52:06.708Z,102768.50
2022-11-12T20:54:51.686Z,102771.53
2022-11-12T20:57:36.544Z,102772.88
2022-11-12T21:00:24.336Z,102775.63
2022-11-12T21:03:09.280Z,102775.63
2022-11-12T21:06:00.745Z,102766.97
2022-11-12T21:08:45.851Z,102774.25
2022-11-12T21:11:30.957Z,102771.38
2022-11-12T21:14:16.097Z,102773.50
2022-11-12T21:17:01.009Z,102771.38
2022-11-12T21:19:45.940Z,102761.38
2022-11-12T21:22:31.717Z,102766.97
2022-11-12T21:25:16.907Z,102769.25
2022-11-12T21:28:01.661Z,102768.50
2022-11-12T21:30:46.570Z,102764.09
2022-11-12T21:33:31.420Z,102757.00
2022-11-12T21:36:16.781Z,102757.00
2022-11-12T21:39:02.420Z,102755.47
2022-11-12T21:41:47.245Z,102761.22
2022-11-12T21:44:32.137Z,102743.94
2022-11-12T21:47:16.969Z,102754.69
2022-11-12T21:50:01.818Z,102745.31
2022-11-12T21:52:46.636Z,102746.69
2022-11-12T21:55:31.435Z,102755.19
2022-11-12T21:58:16.418Z,102739.25
2022-11-12T22:01:07.418Z,102740.63
2022-11-12T22:03:52.649Z,102734.88
2022-11-12T22:06:38.388Z,102734.88
2022-11-12T22:09:23.361Z,102734.88
2022-11-12T22:12:08.238Z,102736.84
2022-11-12T22:14:52.992Z,102728.78
2022-11-12T22:17:37.729Z,102733.06
2022-11-12T22:20:22.510Z,102731.53
2022-11-12T22:23:07.382Z,102732.91
2022-11-12T22:25:52.153Z,102724.25
2022-11-12T22:28:36.879Z,102724.09
2022-11-12T22:31:22.620Z,102721.22
2022-11-12T22:34:08.688Z,102722.56
2022-11-12T22:36:53.594Z,102711.69
2022-11-12T22:39:38.306Z,102710.91
2022-11-12T22:42:23.366Z,102716.66
2022-11-12T22:45:08.594Z,102706.53
2022-11-12T22:47:53.428Z,102701.38
2022-11-12T22:50:38.383Z,102707.13
2022-11-12T22:53:23.187Z,102706.38
2022-11-12T22:56:08.975Z,102700.63
2022-11-12T22:58:53.740Z,102704.09
2022-11-12T23:01:38.560Z,102706.22
2022-11-12T23:04:23.472Z,102700.31
2022-11-12T23:07:08.629Z,102694.56
2022-11-12T23:09:53.662Z,102700.94
2022-11-12T23:12:38.470Z,102703.03
2022-11-12T23:15:23.361Z,102695.78
2022-11-12T23:18:08.041Z,102697.28
2022-11-12T23:20:53.169Z,102701.53
2022-11-12T23:23:37.991Z,102702.91
2022-11-12T23:26:23.561Z,102700.03
2022-11-12T23:29:10.267Z,102702.75
2022-11-12T23:31:54.981Z,102702.75
2022-11-12T23:34:39.791Z,102700.47
2022-11-12T23:37:24.637Z,102702.59
2022-11-12T23:40:09.525Z,102697.00
2022-11-12T23:42:54.550Z,102685.31
2022-11-12T23:45:39.644Z,102688.22
2022-11-12T23:48:24.607Z,102681.69
2022-11-12T23:51:10.507Z,102687.47
2022-11-12T23:53:55.464Z,102686.66
2022-11-12T23:56:40.306Z,102685.91
2022-11-12T23:59:25.190Z,102672.13
